Time;durP1;ratioP1;P1;durP2;ratioP2;P2;SDS_P1;SDS_P2;PMS_P1;PMS_P2;Temp;Humidity;BMP_temperature;BMP_pressure;BME280_temperature;BME280_humidity;BME280_pressure;Samples;Min_cycle;Max_cycle;Signal;HPM_P1;HPM_P2
2021/03/04 00:00:25;;;;;;;42.10;15.03;;;14.90;37.00;;;;;;5095764;28;20432;-85
2021/03/04 00:02:51;;;;;;;29.53;12.10;;;15.30;36.70;;;;;;5095015;28;20438;-85
2021/03/04 00:05:19;;;;;;;30.63;12.77;;;15.70;36.20;;;;;;5087655;28;20440;-85
2021/03/04 00:07:45;;;;;;;28.57;15.03;;;15.80;34.70;;;;;;5074703;28;20448;-85
2021/03/04 00:10:13;;;;;;;31.67;16.33;;;15.50;33.90;;;;;;5075428;28;20466;-85
2021/03/04 00:12:41;;;;;;;38.80;16.10;;;15.10;34.00;;;;;;5073287;28;20439;-85
2021/03/04 00:15:10;;;;;;;39.97;16.63;;;14.90;34.00;;;;;;5075001;28;20455;-85
2021/03/04 00:17:36;;;;;;;35.40;16.47;;;14.50;34.20;;;;;;5074383;28;20626;-86
2021/03/04 00:20:05;;;;;;;34.83;15.70;;;13.60;35.90;;;;;;5084923;28;20459;-85
2021/03/04 00:22:33;;;;;;;34.20;17.40;;;13.30;37.90;;;;;;5096832;28;20476;-85
2021/03/04 00:24:59;;;;;;;23.97;11.90;;;13.80;36.70;;;;;;5083861;28;20827;-84
2021/03/04 00:27:26;;;;;;;41.53;16.77;;;14.40;39.30;;;;;;5077119;28;20489;-84
2021/03/04 00:29:52;;;;;;;26.30;12.87;;;14.30;34.30;;;;;;5076061;28;20467;-84
2021/03/04 00:32:21;;;;;;;27.30;13.80;;;13.90;37.40;;;;;;5077804;28;20458;-85
2021/03/04 00:34:48;;;;;;;27.23;12.23;;;14.50;39.40;;;;;;5077800;28;20435;-86
2021/03/04 00:37:14;;;;;;;21.90;12.00;;;14.80;37.40;;;;;;5078121;28;20474;-84
2021/03/04 00:39:42;;;;;;;37.73;14.80;;;15.10;37.90;;;;;;5087607;28;20454;-84
2021/03/04 00:42:09;;;;;;;35.50;16.30;;;15.40;35.90;;;;;;5089190;28;20967;-84
2021/03/04 00:44:35;;;;;;;24.20;13.37;;;15.10;33.50;;;;;;5086081;28;21188;-84
2021/03/04 00:47:02;;;;;;;24.27;14.33;;;14.80;35.50;;;;;;5078265;28;21030;-84
2021/03/04 00:49:29;;;;;;;32.70;16.43;;;14.90;36.70;;;;;;5077773;28;20472;-84
2021/03/04 00:51:55;;;;;;;26.57;11.90;;;14.50;34.70;;;;;;5078624;28;20485;-84
2021/03/04 00:54:21;;;;;;;23.17;12.27;;;14.20;38.00;;;;;;5077863;28;20482;-84
2021/03/04 00:56:49;;;;;;;20.80;11.50;;;14.30;37.10;;;;;;5079152;28;20496;-84
2021/03/04 00:59:15;;;;;;;25.30;11.73;;;14.60;39.10;;;;;;5077432;28;20497;-85
2021/03/04 01:01:42;;;;;;;34.07;16.27;;;14.90;38.20;;;;;;5079493;28;20948;-85
2021/03/04 01:04:08;;;;;;;29.37;15.30;;;13.90;34.60;;;;;;5079697;28;20447;-85
2021/03/04 01:06:35;;;;;;;21.93;12.33;;;13.70;36.40;;;;;;5077573;28;20499;-85
2021/03/04 01:09:01;;;;;;;20.67;11.70;;;14.20;39.40;;;;;;5076622;28;20455;-84
2021/03/04 01:11:28;;;;;;;29.33;14.20;;;14.40;38.50;;;;;;5078312;28;20438;-84
2021/03/04 01:13:55;;;;;;;36.63;15.30;;;14.40;35.50;;;;;;5079804;28;20456;-84
2021/03/04 01:16:21;;;;;;;24.67;13.10;;;13.80;36.20;;;;;;5079073;28;20443;-84
2021/03/04 01:18:48;;;;;;;34.97;17.60;;;14.20;39.30;;;;;;5076979;28;20498;-84
2021/03/04 01:21:14;;;;;;;25.70;13.37;;;14.00;35.90;;;;;;5075867;28;20501;-84
2021/03/04 01:23:41;;;;;;;22.10;11.77;;;13.80;37.10;;;;;;5077848;28;20416;-85
2021/03/04 01:26:07;;;;;;;21.93;11.93;;;14.40;39.40;;;;;;5076343;28;20545;-85
2021/03/04 01:28:34;;;;;;;19.80;11.87;;;14.60;38.10;;;;;;5075668;28;20555;-85
2021/03/04 01:31:02;;;;;;;20.40;11.37;;;14.90;38.40;;;;;;5077326;28;20448;-85
2021/03/04 01:33:28;;;;;;;27.60;15.97;;;15.10;38.10;;;;;;5075670;28;20448;-85
2021/03/04 01:35:55;;;;;;;25.73;12.80;;;15.40;34.20;;;;;;5075880;28;20443;-85
2021/03/04 01:38:22;;;;;;;19.90;11.80;;;15.30;35.50;;;;;;5074907;28;20483;-85
2021/03/04 01:40:48;;;;;;;22.90;12.67;;;15.50;37.40;;;;;;5075505;28;20452;-84
2021/03/04 01:43:14;;;;;;;21.80;12.90;;;15.80;36.50;;;;;;5076502;28;20531;-84
2021/03/04 01:45:41;;;;;;;19.57;11.90;;;15.80;36.10;;;;;;5075067;28;20468;-84
2021/03/04 01:48:09;;;;;;;28.33;14.63;;;15.90;36.30;;;;;;5074427;28;20487;-84
2021/03/04 01:50:36;;;;;;;21.93;12.43;;;15.70;36.10;;;;;;5075128;28;20917;-84
2021/03/04 01:53:03;;;;;;;23.17;13.30;;;15.90;36.10;;;;;;5075032;28;20501;-84
2021/03/04 01:55:29;;;;;;;33.83;16.23;;;15.90;36.70;;;;;;5074719;28;20472;-84
2021/03/04 01:57:56;;;;;;;25.37;14.80;;;15.50;32.40;;;;;;5074808;28;20478;-84
2021/03/04 02:00:23;;;;;;;29.73;15.53;;;15.10;34.20;;;;;;5075180;28;20585;-84
2021/03/04 02:02:50;;;;;;;32.63;17.90;;;14.70;35.50;;;;;;5091038;28;20452;-84
2021/03/04 02:05:19;;;;;;;34.97;17.20;;;14.30;34.40;;;;;;5098307;28;20423;-84
2021/03/04 02:08:02;;;;;;;31.37;14.13;;;13.70;35.10;;;;;;5090305;28;20438;-84
2021/03/04 02:10:36;;;;;;;23.23;11.80;;;13.80;37.80;;;;;;5075825;28;20477;-84
2021/03/04 02:13:11;;;;;;;16.80;11.23;;;13.90;36.70;;;;;;5074508;28;20897;-84
2021/03/04 02:15:46;;;;;;;18.57;10.73;;;14.10;39.10;;;;;;5074686;28;20426;-84
2021/03/04 02:18:15;;;;;;;21.73;11.30;;;14.60;38.80;;;;;;5074813;28;20451;-84
2021/03/04 02:21:12;;;;;;;20.80;10.87;;;14.80;38.00;;;;;;5074631;28;20932;-84
2021/03/04 02:23:56;;;;;;;25.10;13.13;;;15.10;37.80;;;;;;5048985;28;20474;-84
2021/03/04 02:26:37;;;;;;;21.83;12.00;;;14.50;38.30;;;;;;5074420;28;20558;-84
2021/03/04 02:29:07;;;;;;;28.50;15.77;;;14.80;37.60;;;;;;5074443;28;20494;-84
2021/03/04 02:31:36;;;;;;;27.27;12.63;;;15.10;34.40;;;;;;5074726;28;20452;-84
2021/03/04 02:34:05;;;;;;;22.90;12.83;;;15.00;37.00;;;;;;5074590;28;20459;-84
2021/03/04 02:36:35;;;;;;;26.03;12.40;;;14.60;36.70;;;;;;5074804;28;20439;-84
2021/03/04 02:39:04;;;;;;;26.00;14.60;;;14.80;37.20;;;;;;5074342;28;20447;-84
2021/03/04 02:41:33;;;;;;;39.53;17.47;;;14.80;36.80;;;;;;5074702;28;20444;-84
2021/03/04 02:44:02;;;;;;;26.53;14.30;;;14.70;36.70;;;;;;5074426;28;20440;-84
2021/03/04 02:46:29;;;;;;;21.97;12.27;;;14.80;37.70;;;;;;5074777;28;20475;-84
2021/03/04 02:48:56;;;;;;;18.90;11.17;;;15.00;36.80;;;;;;5074650;28;20510;-84
2021/03/04 02:51:23;;;;;;;31.10;13.90;;;14.80;37.20;;;;;;5074344;28;20451;-84
2021/03/04 02:53:50;;;;;;;25.40;13.77;;;14.90;38.50;;;;;;5074518;28;20563;-84
2021/03/04 02:56:17;;;;;;;20.90;12.53;;;15.10;37.60;;;;;;5074023;28;20436;-84
2021/03/04 02:58:45;;;;;;;25.27;12.67;;;15.40;37.60;;;;;;5073850;28;20523;-84
2021/03/04 03:01:14;;;;;;;18.80;11.77;;;15.60;37.00;;;;;;5073982;28;20957;-85
2021/03/04 03:03:43;;;;;;;23.00;11.30;;;15.70;36.30;;;;;;5074511;28;20448;-85
2021/03/04 03:06:09;;;;;;;20.60;12.27;;;15.40;37.00;;;;;;5075221;28;20487;-85
2021/03/04 03:08:37;;;;;;;19.40;11.80;;;15.40;37.10;;;;;;5075675;28;20655;-85
2021/03/04 03:11:04;;;;;;;23.87;11.53;;;15.40;37.20;;;;;;5076038;28;20479;-85
2021/03/04 03:13:32;;;;;;;25.13;12.87;;;15.40;36.80;;;;;;5075900;28;20456;-85
2021/03/04 03:15:59;;;;;;;31.87;15.30;;;15.50;35.90;;;;;;5095045;28;20426;-85
2021/03/04 03:18:25;;;;;;;24.50;12.73;;;15.50;35.60;;;;;;5095952;28;20436;-85
2021/03/04 03:20:53;;;;;;;29.83;14.40;;;15.60;36.00;;;;;;5095372;28;20443;-85
2021/03/04 03:23:19;;;;;;;29.20;16.30;;;15.40;34.80;;;;;;5095387;28;20449;-85
2021/03/04 03:25:46;;;;;;;20.67;10.83;;;15.10;35.60;;;;;;5095615;28;20463;-85
2021/03/04 03:28:12;;;;;;;29.73;13.20;;;14.90;37.20;;;;;;5094601;28;20470;-85
2021/03/04 03:30:39;;;;;;;34.73;16.30;;;15.00;38.10;;;;;;5078328;28;20448;-85
2021/03/04 03:33:08;;;;;;;29.50;17.00;;;15.20;37.30;;;;;;5086113;28;20428;-85
2021/03/04 03:35:36;;;;;;;20.63;12.50;;;14.90;35.70;;;;;;5098299;28;20432;-85
2021/03/04 03:38:05;;;;;;;23.43;12.80;;;14.90;37.60;;;;;;5098335;28;20463;-84
2021/03/04 03:40:34;;;;;;;26.37;13.73;;;14.90;35.50;;;;;;5094596;28;21096;-84
2021/03/04 03:43:02;;;;;;;22.63;11.97;;;14.50;36.60;;;;;;5083044;28;20529;-84
2021/03/04 03:45:31;;;;;;;18.87;11.30;;;14.70;38.20;;;;;;5098201;28;20416;-84
2021/03/04 03:47:58;;;;;;;24.83;14.60;;;14.90;38.20;;;;;;5097699;28;20446;-85
2021/03/04 03:50:25;;;;;;;33.00;15.40;;;14.90;37.00;;;;;;5098332;28;20412;-85
2021/03/04 03:52:53;;;;;;;24.53;13.60;;;15.00;36.00;;;;;;5098251;28;20468;-84
2021/03/04 03:55:20;;;;;;;23.23;13.63;;;15.00;37.30;;;;;;5093067;28;20427;-84
2021/03/04 03:57:48;;;;;;;21.90;13.00;;;15.10;36.80;;;;;;5074107;28;20436;-84
2021/03/04 04:00:17;;;;;;;25.20;13.90;;;15.10;36.90;;;;;;5075363;28;20431;-84
2021/03/04 04:02:44;;;;;;;19.63;11.23;;;15.20;36.60;;;;;;5078201;28;20458;-84
2021/03/04 04:05:12;;;;;;;22.67;12.30;;;15.20;37.80;;;;;;5076105;28;20428;-84
2021/03/04 04:07:39;;;;;;;20.97;11.83;;;15.40;37.40;;;;;;5094087;28;20474;-84
2021/03/04 04:10:07;;;;;;;27.00;12.57;;;15.40;37.10;;;;;;5078596;28;20472;-84
2021/03/04 04:12:35;;;;;;;21.60;13.20;;;15.50;36.90;;;;;;5091207;28;20443;-85
2021/03/04 04:15:02;;;;;;;30.60;13.27;;;15.50;34.80;;;;;;5088483;28;20920;-84
2021/03/04 04:17:29;;;;;;;22.17;12.20;;;15.20;36.50;;;;;;5076935;28;20932;-84
2021/03/04 04:19:57;;;;;;;21.57;13.27;;;15.20;37.20;;;;;;5077915;28;20502;-84
2021/03/04 04:22:23;;;;;;;28.17;15.87;;;15.00;34.60;;;;;;5078147;28;20817;-84
2021/03/04 04:24:50;;;;;;;32.13;15.13;;;14.40;35.30;;;;;;5079095;28;20447;-84
2021/03/04 04:27:17;;;;;;;21.03;12.13;;;13.90;36.40;;;;;;5089384;28;20471;-84
2021/03/04 04:29:45;;;;;;;20.10;11.70;;;14.10;39.10;;;;;;5089765;28;20463;-84
2021/03/04 04:32:11;;;;;;;21.83;11.57;;;14.70;39.40;;;;;;5091640;28;20875;-85
2021/03/04 04:34:38;;;;;;;20.47;13.10;;;15.10;37.70;;;;;;5090796;28;20439;-84
2021/03/04 04:37:04;;;;;;;29.77;15.20;;;15.00;36.30;;;;;;5084997;28;20447;-84
2021/03/04 04:39:30;;;;;;;28.00;13.40;;;14.80;35.40;;;;;;5081844;28;20456;-84
2021/03/04 04:41:57;;;;;;;25.93;13.03;;;14.30;37.30;;;;;;5076662;28;20932;-84
2021/03/04 04:44:24;;;;;;;23.10;13.27;;;14.60;38.30;;;;;;5077003;28;20517;-84
2021/03/04 04:46:52;;;;;;;21.13;12.70;;;14.80;38.80;;;;;;5076812;28;20485;-84
2021/03/04 04:49:18;;;;;;;24.80;14.27;;;14.90;38.30;;;;;;5077560;28;20500;-84
2021/03/04 04:51:45;;;;;;;32.17;17.87;;;14.70;35.60;;;;;;5076342;28;20485;-85
2021/03/04 04:54:12;;;;;;;23.97;12.97;;;14.20;35.50;;;;;;5076374;28;20933;-84
2021/03/04 04:56:38;;;;;;;28.70;16.03;;;13.80;37.70;;;;;;5075644;28;20970;-85
2021/03/04 04:59:05;;;;;;;24.73;13.60;;;13.50;37.50;;;;;;5077608;28;20529;-84
2021/03/04 05:01:31;;;;;;;19.20;12.90;;;13.20;38.30;;;;;;5080676;28;20514;-84
2021/03/04 05:03:58;;;;;;;30.10;15.97;;;13.00;39.00;;;;;;5081895;28;20557;-83
2021/03/04 05:06:25;;;;;;;28.90;16.13;;;12.40;37.90;;;;;;5081678;28;20483;-84
2021/03/04 05:08:51;;;;;;;21.17;13.17;;;12.20;40.20;;;;;;5079996;28;20494;-84
2021/03/04 05:11:18;;;;;;;29.27;16.60;;;12.50;40.80;;;;;;5077345;28;20501;-84
2021/03/04 05:13:44;;;;;;;22.10;12.00;;;12.90;40.30;;;;;;5078380;28;20471;-84
2021/03/04 05:16:11;;;;;;;26.00;12.10;;;13.70;40.90;;;;;;5077838;28;20455;-85
2021/03/04 05:18:37;;;;;;;23.67;12.90;;;14.20;40.10;;;;;;5076284;28;20466;-85
2021/03/04 05:21:05;;;;;;;19.93;11.70;;;14.50;39.50;;;;;;5076980;28;20451;-85
2021/03/04 05:23:32;;;;;;;28.57;13.27;;;14.50;38.30;;;;;;5075159;28;20822;-85
2021/03/04 05:25:58;;;;;;;28.47;11.57;;;14.60;39.40;;;;;;5075796;28;20472;-85
2021/03/04 05:28:25;;;;;;;22.03;12.87;;;14.80;38.40;;;;;;5076750;28;20490;-85
2021/03/04 05:30:52;;;;;;;30.37;14.70;;;14.90;38.60;;;;;;5076522;28;20475;-85
2021/03/04 05:33:19;;;;;;;32.20;15.23;;;14.60;36.40;;;;;;5075476;28;20459;-85
2021/03/04 05:35:45;;;;;;;27.90;15.27;;;14.00;35.00;;;;;;5076218;28;20505;-84
2021/03/04 05:38:13;;;;;;;23.90;12.40;;;13.60;39.30;;;;;;5076547;28;20509;-84
2021/03/04 05:40:40;;;;;;;19.23;12.27;;;13.50;38.60;;;;;;5076461;28;20969;-85
2021/03/04 05:43:06;;;;;;;23.07;13.77;;;13.50;38.70;;;;;;5075411;28;20473;-84
2021/03/04 05:45:34;;;;;;;28.57;10.97;;;13.60;37.60;;;;;;5074802;28;20534;-85
2021/03/04 05:48:02;;;;;;;22.63;11.33;;;13.80;39.60;;;;;;5074877;28;20446;-85
2021/03/04 05:50:30;;;;;;;24.30;12.60;;;14.10;39.00;;;;;;5075616;28;20442;-85
2021/03/04 05:52:59;;;;;;;18.20;10.03;;;14.30;39.30;;;;;;5075054;28;21004;-85
2021/03/04 05:55:28;;;;;;;20.60;11.33;;;14.40;39.40;;;;;;5083439;28;20484;-85
2021/03/04 05:57:57;;;;;;;22.10;13.17;;;14.50;39.50;;;;;;5089219;28;20439;-85
2021/03/04 06:00:25;;;;;;;28.23;14.17;;;14.40;37.80;;;;;;5084419;28;20451;-85
2021/03/04 06:02:52;;;;;;;27.83;14.67;;;13.60;35.90;;;;;;5089022;28;20435;-84
2021/03/04 06:05:19;;;;;;;22.20;12.23;;;13.00;37.10;;;;;;5075940;28;20447;-84
2021/03/04 06:07:46;;;;;;;21.13;12.20;;;13.20;39.70;;;;;;5074734;28;20482;-85
2021/03/04 06:10:14;;;;;;;20.93;12.03;;;13.70;39.90;;;;;;5074701;28;20445;-85
2021/03/04 06:12:42;;;;;;;21.37;11.13;;;14.00;39.70;;;;;;5074711;28;20443;-85
2021/03/04 06:15:10;;;;;;;21.17;12.50;;;14.50;39.50;;;;;;5075099;28;20862;-85
2021/03/04 06:17:37;;;;;;;26.23;12.10;;;14.60;37.30;;;;;;5083422;28;20485;-85
2021/03/04 06:20:05;;;;;;;27.43;15.03;;;14.20;36.10;;;;;;5083362;28;20467;-84
2021/03/04 06:22:33;;;;;;;29.37;14.63;;;14.10;36.50;;;;;;5080704;28;20455;-84
2021/03/04 06:25:01;;;;;;;20.57;10.80;;;14.00;38.10;;;;;;5077944;28;20841;-85
2021/03/04 06:27:29;;;;;;;21.20;12.07;;;14.30;39.30;;;;;;5076703;28;20487;-85
2021/03/04 06:29:57;;;;;;;19.37;11.70;;;14.70;39.30;;;;;;5080368;28;20467;-84
2021/03/04 06:32:25;;;;;;;27.23;12.97;;;15.00;37.40;;;;;;5080929;28;20493;-85
2021/03/04 06:35:06;;;;;;;17.70;10.60;;;14.80;37.10;;;;;;5078548;28;20929;-85
2021/03/04 06:37:33;;;;;;;23.47;13.87;;;14.70;38.60;;;;;;5079875;28;20432;-85
2021/03/04 06:40:00;;;;;;;31.83;15.80;;;14.70;36.60;;;;;;5076639;28;20470;-85
2021/03/04 06:42:26;;;;;;;23.77;12.80;;;14.60;34.90;;;;;;5076367;28;20642;-85
2021/03/04 06:44:55;;;;;;;21.63;12.53;;;14.50;37.10;;;;;;5077369;28;20509;-85
2021/03/04 06:47:24;;;;;;;21.03;12.27;;;14.10;36.80;;;;;;5082882;28;20471;-86
2021/03/04 06:49:52;;;;;;;24.73;12.23;;;14.00;38.30;;;;;;5079969;28;20478;-84
2021/03/04 06:52:26;;;;;;;27.13;13.07;;;13.80;38.90;;;;;;5076706;28;20438;-85
2021/03/04 06:54:54;;;;;;;24.50;11.47;;;13.60;38.30;;;;;;5076676;28;20451;-85
2021/03/04 06:57:21;;;;;;;26.43;11.90;;;13.80;38.90;;;;;;5075410;28;20941;-85
2021/03/04 06:59:49;;;;;;;22.30;11.77;;;14.10;39.20;;;;;;5076288;28;20571;-85
2021/03/04 07:02:29;;;;;;;20.33;12.77;;;14.20;39.30;;;;;;5074605;28;20468;-85
2021/03/04 07:04:56;;;;;;;21.40;12.07;;;14.40;38.30;;;;;;5074510;28;20435;-85
2021/03/04 07:07:25;;;;;;;21.00;13.07;;;14.00;37.00;;;;;;5074408;28;20518;-85
2021/03/04 07:09:52;;;;;;;23.97;12.10;;;14.00;36.70;;;;;;5074059;28;20478;-85
2021/03/04 07:12:20;;;;;;;20.90;10.97;;;14.30;39.00;;;;;;5074812;28;20497;-85
2021/03/04 07:14:48;;;;;;;23.63;11.03;;;14.40;38.30;;;;;;5074663;28;20458;-85
2021/03/04 07:17:16;;;;;;;19.83;11.97;;;14.50;38.60;;;;;;5075500;28;20443;-85
2021/03/04 07:19:49;;;;;;;20.00;10.87;;;14.20;38.40;;;;;;5075437;28;20831;-85
2021/03/04 07:22:16;;;;;;;18.23;12.03;;;14.60;38.10;;;;;;5074601;28;20464;-85
2021/03/04 07:24:45;;;;;;;26.20;15.90;;;14.60;36.20;;;;;;5074342;28;20491;-86
2021/03/04 07:27:13;;;;;;;26.93;14.63;;;14.60;35.00;;;;;;5074186;28;20468;-86
2021/03/04 07:29:41;;;;;;;34.33;16.10;;;14.20;36.60;;;;;;5076266;28;20505;-86
2021/03/04 07:32:09;;;;;;;30.67;15.07;;;14.30;35.80;;;;;;5074358;28;20948;-85
2021/03/04 07:34:36;;;;;;;40.13;15.63;;;13.80;36.20;;;;;;5074131;28;20838;-85
2021/03/04 07:37:04;;;;;;;25.63;15.53;;;13.70;36.10;;;;;;5074321;28;20439;-85
2021/03/04 07:39:32;;;;;;;28.67;16.60;;;13.70;36.40;;;;;;5074011;28;20879;-86
2021/03/04 07:41:59;;;;;;;28.93;15.70;;;14.00;35.40;;;;;;5073476;28;20444;-86
2021/03/04 07:44:27;;;;;;;24.80;13.90;;;14.00;34.70;;;;;;5073876;28;20933;-86
2021/03/04 07:46:55;;;;;;;22.40;11.40;;;14.10;34.90;;;;;;5078237;28;21018;-87
2021/03/04 07:49:35;;;;;;;27.63;15.03;;;14.20;35.20;;;;;;5077406;28;20510;-86
2021/03/04 07:52:11;;;;;;;30.73;14.67;;;14.40;34.90;;;;;;5078382;28;20480;-86
2021/03/04 07:54:38;;;;;;;26.80;14.47;;;14.50;33.70;;;;;;5079148;28;20834;-85
2021/03/04 07:57:09;;;;;;;26.93;14.43;;;14.60;34.30;;;;;;5078867;28;20539;-86
2021/03/04 07:59:47;;;;;;;22.70;13.53;;;14.60;34.40;;;;;;5077669;28;20975;-86
2021/03/04 08:02:22;;;;;;;31.73;14.30;;;15.10;34.80;;;;;;5078370;28;20432;-85
2021/03/04 08:04:49;;;;;;;31.10;16.63;;;14.90;33.30;;;;;;5078110;28;20434;-85
2021/03/04 08:07:24;;;;;;;24.50;15.23;;;15.00;32.30;;;;;;5078033;28;20897;-85
2021/03/04 08:09:51;;;;;;;26.30;15.87;;;15.30;32.50;;;;;;5077403;28;20998;-85
2021/03/04 08:12:18;;;;;;;30.57;15.20;;;15.40;31.70;;;;;;5077309;28;20546;-86
2021/03/04 08:14:55;;;;;;;24.30;15.37;;;15.50;31.80;;;;;;5077679;28;20739;-86
2021/03/04 08:17:22;;;;;;;25.50;14.57;;;15.50;31.50;;;;;;5077569;28;20936;-86
2021/03/04 08:19:48;;;;;;;19.10;12.30;;;15.80;32.20;;;;;;5077951;28;20467;-85
2021/03/04 08:22:19;;;;;;;17.00;11.53;;;16.00;31.80;;;;;;5079563;28;20862;-87
2021/03/04 08:24:47;;;;;;;27.83;12.30;;;16.10;32.90;;;;;;5080449;28;20947;-86
2021/03/04 08:27:14;;;;;;;21.53;13.47;;;16.20;30.80;;;;;;5081837;28;20479;-86
2021/03/04 08:29:48;;;;;;;33.40;16.87;;;15.90;29.90;;;;;;5080836;28;20465;-86
2021/03/04 08:32:16;;;;;;;26.37;14.30;;;16.10;30.40;;;;;;5082094;28;20457;-86
2021/03/04 08:34:43;;;;;;;30.70;16.03;;;16.40;30.00;;;;;;5081749;28;20457;-86
2021/03/04 08:37:24;;;;;;;27.60;14.20;;;16.60;29.00;;;;;;5081611;28;20443;-86
2021/03/04 08:40:01;;;;;;;28.33;13.03;;;16.60;29.00;;;;;;5080729;28;20498;-86
2021/03/04 08:42:27;;;;;;;25.03;12.77;;;16.60;28.60;;;;;;5081768;28;20482;-86
2021/03/04 08:44:54;;;;;;;127.27;18.50;;;17.10;28.30;;;;;;5081416;28;20477;-86
2021/03/04 08:47:21;;;;;;;41.53;12.23;;;17.20;27.90;;;;;;5081203;28;20531;-86
2021/03/04 08:49:52;;;;;;;25.73;13.00;;;17.60;28.60;;;;;;5094783;28;20463;-85
2021/03/04 08:52:22;;;;;;;27.37;11.80;;;17.40;28.10;;;;;;5100837;28;20419;-85
2021/03/04 08:54:53;;;;;;;37.47;12.70;;;17.70;28.30;;;;;;5101026;28;20411;-85
2021/03/04 08:57:25;;;;;;;27.57;12.70;;;17.60;27.50;;;;;;5088233;28;20459;-86
2021/03/04 09:00:03;;;;;;;27.77;11.70;;;17.60;28.30;;;;;;5095957;28;20447;-85
2021/03/04 09:02:30;;;;;;;21.70;12.10;;;17.30;28.00;;;;;;5100643;28;20435;-85
2021/03/04 09:04:56;;;;;;;26.50;11.80;;;16.70;28.50;;;;;;5100425;28;20457;-85
2021/03/04 09:07:28;;;;;;;33.23;12.03;;;16.50;27.90;;;;;;5100608;28;20485;-85
2021/03/04 09:09:59;;;;;;;24.23;11.60;;;16.80;29.40;;;;;;5082880;28;20459;-86
2021/03/04 09:12:27;;;;;;;20.50;10.67;;;16.70;28.20;;;;;;5077030;28;20444;-86
2021/03/04 09:15:00;;;;;;;21.10;11.33;;;17.00;27.80;;;;;;5076401;28;20440;-86
2021/03/04 09:17:27;;;;;;;29.23;12.73;;;17.30;27.40;;;;;;5077214;28;20500;-86
2021/03/04 09:19:55;;;;;;;20.80;11.93;;;17.60;27.80;;;;;;5077521;28;20495;-87
2021/03/04 09:22:21;;;;;;;22.20;11.57;;;17.50;28.20;;;;;;5078090;28;20454;-86
2021/03/04 09:24:49;;;;;;;32.23;12.40;;;17.40;28.70;;;;;;5077954;28;20546;-86
2021/03/04 09:27:17;;;;;;;21.90;10.73;;;17.40;28.10;;;;;;5076355;28;20843;-86
2021/03/04 09:29:45;;;;;;;26.37;12.20;;;17.50;27.70;;;;;;5076796;28;20552;-86
2021/03/04 09:32:12;;;;;;;27.03;10.97;;;17.50;28.30;;;;;;5077229;28;20427;-86
2021/03/04 09:34:41;;;;;;;21.23;11.40;;;17.60;27.40;;;;;;5077024;28;20490;-86
2021/03/04 09:37:09;;;;;;;24.77;11.13;;;17.50;26.90;;;;;;5077321;28;20451;-86
2021/03/04 09:39:40;;;;;;;18.70;9.30;;;17.70;26.80;;;;;;5076785;28;20474;-85
2021/03/04 09:42:07;;;;;;;21.13;10.10;;;17.90;29.00;;;;;;5077547;28;20451;-86
2021/03/04 09:44:53;;;;;;;27.27;10.87;;;17.80;26.30;;;;;;5077271;28;20463;-87
2021/03/04 09:47:21;;;;;;;20.47;9.93;;;17.80;27.10;;;;;;5076737;28;20992;-85
2021/03/04 09:49:48;;;;;;;28.10;10.37;;;17.70;26.20;;;;;;5075973;28;20502;-86
2021/03/04 09:52:19;;;;;;;27.87;10.17;;;17.80;26.10;;;;;;5075875;28;20448;-86
2021/03/04 09:54:46;;;;;;;17.40;9.30;;;17.60;25.30;;;;;;5075832;28;20526;-85
2021/03/04 09:57:18;;;;;;;20.03;8.90;;;17.60;27.00;;;;;;5075732;28;20562;-85
2021/03/04 09:59:46;;;;;;;21.90;8.70;;;17.20;27.60;;;;;;5075561;28;20984;-86
2021/03/04 10:02:25;;;;;;;20.13;8.73;;;17.30;27.10;;;;;;5075742;28;20808;-91
2021/03/04 10:04:53;;;;;;;19.40;8.90;;;17.30;25.90;;;;;;5075616;28;20510;-85
2021/03/04 10:07:23;;;;;;;24.90;9.17;;;17.20;27.00;;;;;;5075273;28;20839;-85
2021/03/04 10:09:50;;;;;;;18.13;8.60;;;17.30;25.30;;;;;;5074875;28;20464;-86
2021/03/04 10:12:16;;;;;;;17.77;8.57;;;17.50;25.90;;;;;;5075274;28;20478;-85
2021/03/04 10:14:44;;;;;;;21.83;8.10;;;17.40;26.20;;;;;;5075081;28;20447;-87
2021/03/04 10:17:10;;;;;;;23.63;8.10;;;17.30;25.70;;;;;;5075240;28;20463;-86
2021/03/04 10:19:38;;;;;;;20.67;8.87;;;17.50;25.40;;;;;;5074635;28;20817;-86
2021/03/04 10:22:04;;;;;;;15.27;7.90;;;17.70;26.50;;;;;;5075047;28;20450;-85
2021/03/04 10:24:31;;;;;;;26.07;11.40;;;17.60;25.90;;;;;;5075052;28;20462;-86
2021/03/04 10:26:59;;;;;;;36.53;8.80;;;17.60;25.50;;;;;;5074520;28;20503;-86
2021/03/04 10:29:26;;;;;;;35.47;9.80;;;17.80;25.40;;;;;;5076554;28;20513;-86
2021/03/04 10:31:52;;;;;;;14.43;6.90;;;17.90;26.50;;;;;;5087112;28;20473;-85
2021/03/04 10:34:19;;;;;;;31.47;8.20;;;17.60;26.30;;;;;;5095634;28;20423;-85
2021/03/04 10:36:47;;;;;;;40.10;8.47;;;17.70;26.00;;;;;;5090118;28;20435;-86
2021/03/04 10:39:14;;;;;;;20.10;6.87;;;17.90;26.50;;;;;;5077215;28;20475;-86
2021/03/04 10:41:41;;;;;;;17.63;8.40;;;17.90;27.40;;;;;;5074891;28;20459;-87
2021/03/04 10:44:08;;;;;;;23.43;8.53;;;17.20;27.90;;;;;;5075743;28;20788;-87
2021/03/04 10:46:35;;;;;;;23.10;8.20;;;17.20;27.00;;;;;;5074533;28;20533;-87
2021/03/04 10:49:01;;;;;;;27.20;8.27;;;17.60;26.00;;;;;;5074713;28;20490;-86
2021/03/04 10:51:28;;;;;;;17.87;8.40;;;17.90;25.80;;;;;;5074248;28;20451;-86
2021/03/04 10:53:55;;;;;;;20.37;7.90;;;18.10;25.50;;;;;;5075517;28;20505;-86
2021/03/04 10:56:22;;;;;;;18.20;7.73;;;18.30;26.20;;;;;;5075242;28;20444;-86
2021/03/04 10:58:49;;;;;;;21.73;7.93;;;18.00;26.90;;;;;;5074821;28;20475;-86
2021/03/04 11:01:15;;;;;;;17.73;8.00;;;18.10;25.90;;;;;;5075350;28;20435;-86
2021/03/04 11:03:42;;;;;;;25.87;8.73;;;18.30;26.10;;;;;;5074784;28;20435;-86
2021/03/04 11:06:08;;;;;;;18.90;7.30;;;18.20;25.80;;;;;;5074293;28;20458;-86
2021/03/04 11:08:35;;;;;;;19.30;8.53;;;18.10;26.20;;;;;;5074380;28;20471;-86
2021/03/04 11:11:02;;;;;;;16.20;7.70;;;18.10;25.40;;;;;;5074827;28;20431;-86
2021/03/04 11:13:28;;;;;;;19.20;8.93;;;18.00;26.80;;;;;;5074047;28;20451;-86
2021/03/04 11:15:55;;;;;;;34.57;8.40;;;17.80;26.00;;;;;;5074235;28;20450;-86
2021/03/04 11:18:21;;;;;;;19.87;8.07;;;17.90;25.90;;;;;;5073997;28;20475;-86
2021/03/04 11:20:48;;;;;;;24.20;7.50;;;17.90;25.70;;;;;;5073640;28;20428;-86
2021/03/04 11:23:14;;;;;;;13.43;6.23;;;18.10;25.90;;;;;;5074187;28;20496;-86
2021/03/04 11:25:41;;;;;;;21.80;7.63;;;18.40;25.60;;;;;;5074094;28;20447;-86
2021/03/04 11:28:08;;;;;;;29.93;9.80;;;18.30;26.50;;;;;;5073622;28;21106;-86
2021/03/04 11:30:36;;;;;;;18.13;8.90;;;18.30;25.40;;;;;;5074328;28;20451;-86
2021/03/04 11:33:04;;;;;;;17.97;7.47;;;17.90;25.30;;;;;;5073424;28;20933;-86
2021/03/04 11:35:30;;;;;;;18.77;9.30;;;17.60;26.80;;;;;;5074576;28;20604;-86
2021/03/04 11:37:57;;;;;;;14.97;8.07;;;17.90;26.80;;;;;;5073356;28;20448;-86
2021/03/04 11:40:24;;;;;;;19.87;7.93;;;17.50;25.80;;;;;;5073288;28;20447;-86
2021/03/04 11:42:51;;;;;;;21.07;7.30;;;17.50;26.20;;;;;;5074575;28;20439;-86
2021/03/04 11:45:18;;;;;;;26.57;8.23;;;18.00;26.30;;;;;;5075442;28;20439;-86
2021/03/04 11:47:44;;;;;;;18.70;7.77;;;18.10;25.10;;;;;;5073483;28;20504;-86
2021/03/04 11:50:13;;;;;;;17.90;8.67;;;18.50;25.10;;;;;;5073493;28;20948;-86
2021/03/04 11:52:39;;;;;;;15.27;7.70;;;18.80;25.10;;;;;;5073662;28;20501;-87
2021/03/04 11:55:08;;;;;;;17.93;7.47;;;18.90;25.90;;;;;;5073594;28;20534;-86
2021/03/04 11:57:35;;;;;;;17.10;6.93;;;19.00;24.80;;;;;;5073891;28;20479;-87
2021/03/04 12:00:02;;;;;;;24.63;8.17;;;19.10;26.90;;;;;;5073004;28;20471;-86
2021/03/04 12:02:29;;;;;;;26.50;7.87;;;18.70;26.00;;;;;;5073566;28;20959;-86
2021/03/04 12:04:56;;;;;;;22.10;7.83;;;18.30;25.40;;;;;;5074625;28;20447;-86
2021/03/04 12:07:23;;;;;;;15.60;6.77;;;18.70;24.80;;;;;;5073724;28;21004;-87
2021/03/04 12:09:49;;;;;;;20.93;7.97;;;18.90;26.40;;;;;;5075068;28;20475;-86
2021/03/04 12:12:16;;;;;;;19.33;8.60;;;18.70;26.40;;;;;;5077893;28;20432;-86
2021/03/04 12:14:42;;;;;;;24.50;8.40;;;19.20;25.10;;;;;;5079511;28;20439;-85
2021/03/04 12:17:09;;;;;;;14.73;6.73;;;18.80;24.30;;;;;;5078786;28;20842;-85
2021/03/04 12:19:36;;;;;;;22.93;6.73;;;18.90;26.70;;;;;;5078982;28;20468;-86
2021/03/04 12:22:03;;;;;;;18.77;6.50;;;19.30;26.60;;;;;;5076584;28;20482;-86
2021/03/04 12:24:31;;;;;;;11.83;6.30;;;19.20;26.40;;;;;;5078540;28;20459;-86
2021/03/04 12:26:58;;;;;;;20.07;7.07;;;19.40;25.40;;;;;;5075236;28;20525;-86
2021/03/04 12:29:24;;;;;;;18.43;7.53;;;18.90;25.00;;;;;;5074787;28;20510;-85
2021/03/04 12:31:51;;;;;;;30.47;8.60;;;18.90;26.30;;;;;;5076823;28;20451;-85